createdAt,value
2018-03-31T00:00:43.088Z,55.80
2018-03-31T00:03:10.473Z,56.00
2018-03-31T00:05:37.879Z,56.30
2018-03-31T00:08:05.256Z,56.50
2018-03-31T00:10:32.713Z,56.80
2018-03-31T00:13:00.889Z,56.90
2018-03-31T00:15:28.291Z,57.10
2018-03-31T00:17:56.426Z,57.00
2018-03-31T00:20:23.801Z,57.00
2018-03-31T00:22:51.967Z,57.40
2018-03-31T00:25:19.343Z,57.40
2018-03-31T00:27:47.520Z,57.70
2018-03-31T00:30:15.404Z,57.60
2018-03-31T00:32:42.775Z,57.70
2018-03-31T00:35:10.185Z,57.60
2018-03-31T00:37:38.386Z,58.00
2018-03-31T00:40:05.833Z,57.90
2018-03-31T00:42:33.217Z,57.90
2018-03-31T00:45:00.627Z,58.00
2018-03-31T00:47:28.780Z,58.30
2018-03-31T00:49:56.148Z,58.20
2018-03-31T00:52:24.304Z,58.30
2018-03-31T00:54:51.695Z,58.30
2018-03-31T00:57:19.088Z,58.60
2018-03-31T00:59:46.468Z,58.70
2018-03-31T01:02:13.851Z,58.90
2018-03-31T01:04:41.256Z,59.10
2018-03-31T01:07:08.671Z,60.10
2018-03-31T01:09:36.046Z,59.20
2018-03-31T01:12:03.448Z,59.00
2018-03-31T01:14:31.656Z,58.90
2018-03-31T01:16:59.121Z,58.90
2018-03-31T01:19:26.501Z,59.10
2018-03-31T01:21:53.927Z,59.40
2018-03-31T01:24:21.336Z,59.30
2018-03-31T01:26:48.728Z,59.40
2018-03-31T01:29:16.107Z,59.20
2018-03-31T01:31:43.504Z,59.40
2018-03-31T01:39:00.873Z,59.50
2018-03-31T01:41:29.024Z,61.00
2018-03-31T01:43:56.425Z,60.90
2018-03-31T01:46:23.824Z,60.90
2018-03-31T01:48:51.336Z,60.90
2018-03-31T01:51:18.707Z,60.90
2018-03-31T01:53:46.083Z,60.90
2018-03-31T01:56:13.501Z,60.30
2018-03-31T01:58:40.895Z,60.40
2018-03-31T02:01:08.304Z,60.00
2018-03-31T02:03:35.697Z,60.30
2018-03-31T02:06:03.096Z,60.10
2018-03-31T02:08:31.238Z,60.00
2018-03-31T02:10:58.663Z,60.00
2018-03-31T02:13:26.044Z,60.00
2018-03-31T02:15:53.430Z,60.10
2018-03-31T02:18:21.599Z,60.10
2018-03-31T02:20:49.765Z,60.00
2018-03-31T02:23:17.931Z,59.80
2018-03-31T02:25:45.323Z,59.70
2018-03-31T02:28:12.716Z,59.90
2018-03-31T02:30:40.092Z,59.90
2018-03-31T02:33:07.488Z,60.00
2018-03-31T02:35:34.871Z,60.30
2018-03-31T02:38:02.288Z,60.70
2018-03-31T02:40:29.737Z,60.80
2018-03-31T02:42:57.088Z,60.80
2018-03-31T02:45:25.241Z,60.80
2018-03-31T02:47:52.632Z,60.80
2018-03-31T02:50:20.037Z,62.00
2018-03-31T02:52:47.412Z,60.80
2018-03-31T02:55:15.557Z,60.80
2018-03-31T02:57:42.952Z,60.80
2018-03-31T03:00:11.125Z,60.80
2018-03-31T03:02:38.809Z,60.80
2018-03-31T03:05:06.178Z,60.70
2018-03-31T03:07:33.587Z,60.70
2018-03-31T03:10:01.762Z,60.80
2018-03-31T03:12:29.904Z,60.80
2018-03-31T03:14:57.296Z,60.80
2018-03-31T03:17:25.480Z,60.80
2018-03-31T03:19:52.854Z,60.80
2018-03-31T03:22:20.224Z,60.70
2018-03-31T03:24:47.643Z,60.70
2018-03-31T03:27:15.020Z,60.60
2018-03-31T03:29:42.411Z,60.60
2018-03-31T03:32:09.807Z,60.50
2018-03-31T03:34:37.201Z,60.50
2018-03-31T03:37:04.623Z,60.50
2018-03-31T03:39:32.013Z,60.50
2018-03-31T03:41:59.427Z,61.90
2018-03-31T03:44:26.813Z,60.60
2018-03-31T03:46:54.224Z,60.70
2018-03-31T03:49:22.375Z,60.00
2018-03-31T03:51:49.747Z,60.00
2018-03-31T03:54:17.939Z,59.30
2018-03-31T03:56:45.315Z,59.20
2018-03-31T03:59:12.772Z,58.60
2018-03-31T04:01:40.208Z,58.50
2018-03-31T04:04:07.666Z,58.10
2018-03-31T04:06:35.035Z,57.80
2018-03-31T04:09:02.414Z,57.40
2018-03-31T04:11:29.811Z,57.10
2018-03-31T04:13:57.285Z,57.20
2018-03-31T04:16:24.650Z,57.20
2018-03-31T04:18:52.057Z,56.90
2018-03-31T04:21:20.219Z,56.70
2018-03-31T04:23:47.621Z,56.80
2018-03-31T04:26:15.089Z,56.70
2018-03-31T04:28:42.451Z,56.30
2018-03-31T04:31:09.844Z,57.80
2018-03-31T04:33:37.255Z,56.50
2018-03-31T04:36:04.623Z,57.10
2018-03-31T04:38:32.027Z,56.20
2018-03-31T04:41:00.206Z,56.30
2018-03-31T04:43:28.360Z,56.50
2018-03-31T04:45:56.528Z,56.20
2018-03-31T04:48:23.915Z,56.20
2018-03-31T04:50:51.321Z,55.90
2018-03-31T04:53:18.695Z,55.50
2018-03-31T04:55:46.873Z,55.80
2018-03-31T04:58:15.115Z,55.10
2018-03-31T05:00:42.499Z,55.10
2018-03-31T05:03:10.676Z,54.70
2018-03-31T05:05:38.827Z,54.70
2018-03-31T05:08:06.210Z,54.60
2018-03-31T05:10:34.376Z,54.20
2018-03-31T05:13:02.520Z,54.70
2018-03-31T05:15:29.930Z,54.60
2018-03-31T05:17:57.401Z,54.70
2018-03-31T05:20:24.820Z,54.60
2018-03-31T05:22:53.024Z,54.30
2018-03-31T05:25:20.395Z,54.10
2018-03-31T05:27:47.833Z,54.40
2018-03-31T05:30:15.218Z,54.30
2018-03-31T05:32:42.627Z,54.20
2018-03-31T05:35:10.101Z,53.90
2018-03-31T05:37:37.561Z,53.40
2018-03-31T05:40:04.959Z,52.80
2018-03-31T05:42:32.351Z,52.70
2018-03-31T05:44:59.766Z,52.40
2018-03-31T05:47:27.918Z,51.00
2018-03-31T05:49:55.336Z,52.00
2018-03-31T05:52:22.795Z,51.70
2018-03-31T05:54:50.168Z,51.10
2018-03-31T05:57:17.626Z,51.30
2018-03-31T05:59:45.779Z,50.80
2018-03-31T06:02:13.186Z,50.70
2018-03-31T06:04:40.555Z,50.10
2018-03-31T06:07:08.720Z,50.40
2018-03-31T06:09:36.220Z,50.00
2018-03-31T06:12:03.600Z,49.80
2018-03-31T06:14:31.017Z,49.50
2018-03-31T06:16:58.443Z,50.50
2018-03-31T06:19:25.846Z,50.80
2018-03-31T06:21:53.228Z,51.10
2018-03-31T06:24:20.596Z,51.00
2018-03-31T06:26:48.016Z,50.80
2018-03-31T06:29:15.383Z,50.80
2018-03-31T06:31:42.788Z,50.90
2018-03-31T06:34:10.939Z,51.30
2018-03-31T06:36:38.345Z,51.40
2018-03-31T06:39:05.735Z,51.90
2018-03-31T06:41:33.112Z,52.40
2018-03-31T06:44:01.268Z,52.90
2018-03-31T06:46:28.812Z,52.90
2018-03-31T06:48:56.236Z,53.10
2018-03-31T06:51:23.633Z,53.00
2018-03-31T06:53:51.051Z,52.90
2018-03-31T06:56:18.419Z,52.80
2018-03-31T06:58:45.838Z,52.40
2018-03-31T07:01:13.306Z,51.50
2018-03-31T07:03:40.680Z,50.90
2018-03-31T07:06:08.119Z,50.40
2018-03-31T07:08:35.487Z,50.20
2018-03-31T07:11:02.884Z,50.20
2018-03-31T07:13:30.271Z,50.00
2018-03-31T07:15:57.645Z,49.60
2018-03-31T07:18:25.048Z,49.20
2018-03-31T07:20:52.444Z,50.20
2018-03-31T07:23:19.824Z,50.80
2018-03-31T07:25:47.263Z,51.40
2018-03-31T07:28:14.654Z,50.80
2018-03-31T07:30:42.067Z,50.70
2018-03-31T07:33:09.448Z,51.40
2018-03-31T07:35:36.838Z,51.20
2018-03-31T07:38:04.996Z,51.60
2018-03-31T07:40:32.400Z,51.50
2018-03-31T07:42:59.787Z,51.90
2018-03-31T07:45:27.159Z,52.30
2018-03-31T07:47:54.555Z,51.90
2018-03-31T07:50:22.012Z,52.30
2018-03-31T07:52:49.723Z,53.20
2018-03-31T07:55:17.086Z,53.80
2018-03-31T07:57:44.495Z,53.20
2018-03-31T08:00:11.873Z,53.50
2018-03-31T08:02:39.300Z,53.50
2018-03-31T08:05:06.712Z,53.00
2018-03-31T08:07:34.094Z,52.80
2018-03-31T08:10:01.513Z,52.60
2018-03-31T08:12:28.876Z,52.20
2018-03-31T08:14:56.381Z,51.40
2018-03-31T08:17:23.788Z,51.70
2018-03-31T08:19:51.202Z,50.90
2018-03-31T08:22:18.572Z,51.10
2018-03-31T08:24:45.967Z,49.90
2018-03-31T08:27:14.159Z,49.40
2018-03-31T08:29:41.556Z,49.30
2018-03-31T08:32:08.952Z,49.80
2018-03-31T08:34:38.040Z,48.90
2018-03-31T08:37:06.250Z,49.10
2018-03-31T08:39:33.661Z,48.90
2018-03-31T08:42:01.852Z,48.20
2018-03-31T08:44:29.232Z,48.10
2018-03-31T08:46:56.680Z,47.90
2018-03-31T08:49:24.059Z,47.00
2018-03-31T08:51:51.443Z,46.60
2018-03-31T08:54:18.991Z,47.40
2018-03-31T08:56:46.375Z,47.40
2018-03-31T08:59:14.530Z,48.80
2018-03-31T09:01:42.046Z,48.70
2018-03-31T09:04:09.500Z,48.60
2018-03-31T09:06:36.892Z,48.30
2018-03-31T09:09:04.765Z,48.00
2018-03-31T09:11:32.193Z,48.20
2018-03-31T09:13:59.608Z,48.20
2018-03-31T09:16:27.007Z,48.50
2018-03-31T09:18:54.386Z,48.60
2018-03-31T09:21:21.820Z,48.90
2018-03-31T09:23:49.253Z,50.30
2018-03-31T09:26:16.653Z,49.50
2018-03-31T09:28:44.696Z,49.80
2018-03-31T09:31:12.079Z,49.00
2018-03-31T09:33:39.481Z,50.70
2018-03-31T09:36:06.856Z,51.40
2018-03-31T09:38:34.262Z,50.50
2018-03-31T09:41:02.419Z,50.90
2018-03-31T09:43:30.583Z,50.40
2018-03-31T09:45:57.978Z,50.40
2018-03-31T09:48:25.369Z,50.90
2018-03-31T09:50:52.800Z,49.80
2018-03-31T09:53:20.180Z,49.40
2018-03-31T09:55:47.591Z,48.90
2018-03-31T09:58:14.973Z,48.80
2018-03-31T10:00:42.411Z,49.50
2018-03-31T10:03:09.801Z,49.40
2018-03-31T10:05:37.223Z,49.80
2018-03-31T10:08:04.679Z,50.60
2018-03-31T10:10:32.072Z,51.50
2018-03-31T10:12:59.711Z,53.00
2018-03-31T10:15:27.121Z,53.60
2018-03-31T10:17:55.304Z,54.80
2018-03-31T10:20:22.692Z,54.90
2018-03-31T10:22:50.141Z,55.00
2018-03-31T10:25:17.603Z,54.30
2018-03-31T10:27:44.994Z,56.00
2018-03-31T10:30:12.396Z,55.20
2018-03-31T10:32:39.771Z,54.80
2018-03-31T10:35:07.211Z,54.60
2018-03-31T10:37:34.615Z,54.00
2018-03-31T10:40:02.007Z,52.30
2018-03-31T10:42:29.423Z,52.50
2018-03-31T10:44:56.817Z,52.60
2018-03-31T10:47:24.241Z,51.90
2018-03-31T10:49:51.645Z,50.80
2018-03-31T10:52:19.066Z,50.50
2018-03-31T10:54:47.223Z,49.30
2018-03-31T10:57:15.135Z,50.60
2018-03-31T10:59:42.561Z,48.60
2018-03-31T11:02:10.732Z,45.70
2018-03-31T11:04:38.941Z,45.10
2018-03-31T11:07:06.360Z,45.10
2018-03-31T11:09:34.887Z,43.90
2018-03-31T11:12:02.304Z,43.90
2018-03-31T11:14:30.512Z,43.30
2018-03-31T11:16:57.900Z,43.40
2018-03-31T11:19:25.312Z,42.00
2018-03-31T11:21:52.712Z,41.60
2018-03-31T11:24:20.227Z,42.30
2018-03-31T11:26:47.628Z,42.80
2018-03-31T11:29:15.040Z,42.80
2018-03-31T11:31:42.496Z,42.50
2018-03-31T11:34:09.908Z,42.40
2018-03-31T11:36:38.071Z,42.00
2018-03-31T11:39:05.458Z,42.00
2018-03-31T11:41:32.884Z,42.00
2018-03-31T11:44:00.291Z,44.10
2018-03-31T11:46:27.688Z,45.40
2018-03-31T11:48:55.146Z,45.90
2018-03-31T11:51:22.501Z,45.60
2018-03-31T11:53:49.895Z,45.50
2018-03-31T11:56:17.332Z,44.10
2018-03-31T11:58:45.522Z,42.50
2018-03-31T12:01:12.906Z,42.60
2018-03-31T12:03:40.405Z,44.90
2018-03-31T12:06:08.617Z,45.40
2018-03-31T12:08:36.104Z,45.40
2018-03-31T12:11:03.526Z,44.20
2018-03-31T12:13:30.919Z,43.50
2018-03-31T12:15:58.327Z,43.40
2018-03-31T12:18:25.734Z,43.10
2018-03-31T12:20:53.154Z,43.40
2018-03-31T12:23:20.561Z,43.30
2018-03-31T12:25:47.952Z,42.70
2018-03-31T12:28:15.380Z,43.30
2018-03-31T12:30:43.555Z,44.70
2018-03-31T12:33:11.749Z,44.10
2018-03-31T12:35:39.145Z,44.10
2018-03-31T12:38:06.557Z,43.50
2018-03-31T12:40:33.949Z,43.30
2018-03-31T12:43:01.364Z,43.10
2018-03-31T12:45:28.751Z,43.20
2018-03-31T12:47:56.151Z,42.10
2018-03-31T12:50:24.354Z,40.40
2018-03-31T12:52:51.755Z,40.30
2018-03-31T12:55:19.184Z,39.40
2018-03-31T12:57:46.576Z,39.50
2018-03-31T13:00:13.975Z,40.00
2018-03-31T13:02:41.385Z,40.60
2018-03-31T13:05:08.786Z,40.10
2018-03-31T13:07:36.203Z,39.50
2018-03-31T13:10:03.597Z,39.50
2018-03-31T13:12:31.030Z,39.50
2018-03-31T13:14:59.217Z,39.40
2018-03-31T13:17:26.771Z,39.40
2018-03-31T13:19:54.254Z,39.30
2018-03-31T13:22:21.675Z,40.20
2018-03-31T13:24:49.860Z,41.00
2018-03-31T13:27:17.256Z,41.00
2018-03-31T13:29:44.643Z,41.20
2018-03-31T13:32:12.827Z,40.30
2018-03-31T13:34:41.000Z,41.80
2018-03-31T13:37:09.157Z,42.50
2018-03-31T13:39:37.340Z,42.90
2018-03-31T13:42:05.557Z,42.30
2018-03-31T13:44:32.952Z,42.30
2018-03-31T13:47:00.348Z,42.90
2018-03-31T13:49:27.778Z,43.20
2018-03-31T13:51:56.947Z,43.60
2018-03-31T13:54:24.372Z,43.70
2018-03-31T13:56:51.818Z,43.60
2018-03-31T13:59:19.294Z,43.70
2018-03-31T14:01:46.724Z,44.40
2018-03-31T14:04:14.136Z,44.10
2018-03-31T14:06:41.556Z,44.40
2018-03-31T14:09:08.944Z,44.90
2018-03-31T14:11:36.367Z,44.50
2018-03-31T14:14:03.758Z,44.00
2018-03-31T14:16:31.140Z,43.80
2018-03-31T14:18:58.553Z,44.50
2018-03-31T14:21:25.964Z,43.70
2018-03-31T14:23:53.383Z,43.90
2018-03-31T14:26:20.933Z,44.80
2018-03-31T14:28:48.324Z,45.50
2018-03-31T14:31:15.801Z,45.60
2018-03-31T14:33:43.216Z,45.80
2018-03-31T14:36:11.427Z,46.10
2018-03-31T14:38:38.839Z,46.00
2018-03-31T14:41:07.046Z,47.00
2018-03-31T14:43:34.456Z,46.10
2018-03-31T14:46:01.844Z,48.00
2018-03-31T14:48:29.255Z,48.50
2018-03-31T14:50:56.646Z,49.00
2018-03-31T14:53:24.842Z,49.30
2018-03-31T14:55:52.250Z,49.30
2018-03-31T14:58:19.640Z,49.30
2018-03-31T15:00:47.060Z,50.00
2018-03-31T15:03:14.455Z,49.30
2018-03-31T15:05:41.888Z,51.40
2018-03-31T15:08:10.063Z,52.30
2018-03-31T15:10:38.308Z,52.20
2018-03-31T15:13:05.660Z,52.10
2018-03-31T15:15:33.087Z,52.20
2018-03-31T15:18:00.541Z,52.20
2018-03-31T15:20:27.923Z,52.10
2018-03-31T15:22:55.340Z,52.10
2018-03-31T15:25:22.753Z,52.40
2018-03-31T15:27:50.144Z,53.00
2018-03-31T15:30:17.565Z,53.70
2018-03-31T15:32:45.740Z,54.60
2018-03-31T15:35:13.675Z,54.60
2018-03-31T15:37:41.083Z,54.90
2018-03-31T15:40:21.560Z,55.20
2018-03-31T15:42:49.085Z,55.50
2018-03-31T15:45:17.259Z,55.90
2018-03-31T15:47:45.464Z,56.60
2018-03-31T15:50:12.847Z,56.50
2018-03-31T15:52:40.257Z,56.80
2018-03-31T15:55:07.668Z,56.90
2018-03-31T15:57:35.097Z,58.50
2018-03-31T16:00:02.526Z,57.20
2018-03-31T16:02:29.978Z,59.00
2018-03-31T16:04:58.151Z,59.80
2018-03-31T16:07:25.567Z,59.90
2018-03-31T16:09:52.955Z,59.80
2018-03-31T16:12:20.446Z,58.60
2018-03-31T16:14:47.872Z,58.10
2018-03-31T16:17:15.749Z,58.30
2018-03-31T16:19:57.104Z,57.90
2018-03-31T16:22:24.508Z,58.10
2018-03-31T16:24:52.671Z,57.60
2018-03-31T16:27:20.064Z,57.60
2018-03-31T16:29:47.464Z,57.20
2018-03-31T16:32:14.883Z,58.20
2018-03-31T16:34:42.325Z,58.30
2018-03-31T16:37:10.480Z,57.70
2018-03-31T16:39:37.868Z,57.70
2018-03-31T16:42:05.262Z,59.70
2018-03-31T16:44:32.731Z,60.50
2018-03-31T16:47:00.896Z,61.20
2018-03-31T16:49:29.057Z,63.00
2018-03-31T16:51:56.473Z,61.60
2018-03-31T16:54:23.884Z,62.40
2018-03-31T16:56:52.036Z,62.90
2018-03-31T16:59:19.430Z,62.90
2018-03-31T17:01:46.831Z,63.10
2018-03-31T17:04:14.219Z,63.30
2018-03-31T17:06:42.388Z,63.70
2018-03-31T17:09:10.561Z,64.20
2018-03-31T17:11:38.729Z,64.60
2018-03-31T17:14:06.117Z,64.60
2018-03-31T17:16:33.515Z,66.20
2018-03-31T17:19:00.895Z,65.70
2018-03-31T17:21:29.049Z,65.80
2018-03-31T17:23:56.452Z,65.60
2018-03-31T17:26:23.872Z,65.50
2018-03-31T17:28:51.308Z,65.50
2018-03-31T17:31:18.900Z,65.50
2018-03-31T17:33:47.076Z,66.60
2018-03-31T17:36:15.222Z,67.10
2018-03-31T17:38:42.674Z,67.10
2018-03-31T17:41:10.049Z,67.80
2018-03-31T17:43:37.454Z,68.40
2018-03-31T17:46:04.849Z,69.90
2018-03-31T17:48:32.252Z,68.70
2018-03-31T17:50:59.648Z,68.40
2018-03-31T17:53:27.067Z,68.70
2018-03-31T17:55:54.455Z,68.30
2018-03-31T17:58:21.857Z,68.60
2018-03-31T18:00:49.321Z,68.30
2018-03-31T18:03:16.711Z,68.40
2018-03-31T18:05:44.091Z,68.30
2018-03-31T18:08:11.486Z,68.40
2018-03-31T18:10:38.887Z,69.90
2018-03-31T18:13:06.267Z,69.00
2018-03-31T18:15:34.487Z,72.00
2018-03-31T18:18:02.599Z,73.10
2018-03-31T18:20:30.013Z,73.10
2018-03-31T18:22:57.393Z,73.60
2018-03-31T18:25:24.775Z,74.80
2018-03-31T18:27:52.936Z,77.00
2018-03-31T18:30:20.336Z,76.60
2018-03-31T18:32:47.732Z,76.20
2018-03-31T18:35:15.148Z,76.90
2018-03-31T18:37:42.530Z,79.00
2018-03-31T18:40:09.935Z,79.80
2018-03-31T18:42:38.098Z,80.50
2018-03-31T18:45:06.238Z,80.10
2018-03-31T18:47:33.627Z,80.10
2018-03-31T18:50:01.773Z,80.10
2018-03-31T18:52:29.177Z,80.10
2018-03-31T18:54:56.554Z,80.40
2018-03-31T18:57:23.932Z,80.30
2018-03-31T18:59:51.328Z,80.50
2018-03-31T19:02:19.467Z,81.20
2018-03-31T19:04:46.871Z,81.20
2018-03-31T19:07:14.268Z,81.60
2018-03-31T19:09:41.639Z,82.30
2018-03-31T19:12:09.071Z,82.30
2018-03-31T19:14:41.983Z,82.80
2018-03-31T19:17:14.316Z,83.20
2018-03-31T19:19:41.724Z,83.00
2018-03-31T19:22:09.899Z,82.90
2018-03-31T19:24:43.571Z,83.00
2018-03-31T19:27:11.176Z,83.00
2018-03-31T19:29:38.552Z,83.60
2018-03-31T19:32:05.927Z,84.50
2018-03-31T19:34:33.396Z,85.40
2018-03-31T19:37:00.728Z,85.30
2018-03-31T19:39:33.738Z,85.30
2018-03-31T19:42:01.110Z,85.30
2018-03-31T19:44:29.279Z,85.20
2018-03-31T19:46:57.423Z,85.10
2018-03-31T19:49:24.948Z,85.40
2018-03-31T19:51:52.319Z,85.30
2018-03-31T19:54:19.692Z,84.40
2018-03-31T19:56:47.083Z,85.30
2018-03-31T19:59:15.216Z,85.30
2018-03-31T20:01:42.607Z,85.30
2018-03-31T20:04:10.764Z,85.30
2018-03-31T20:06:38.162Z,85.30
2018-03-31T20:09:05.539Z,85.10
2018-03-31T20:11:32.908Z,85.20
2018-03-31T20:14:00.304Z,85.30
2018-03-31T20:16:28.453Z,85.70
2018-03-31T20:18:55.823Z,85.70
2018-03-31T20:21:23.980Z,85.60
2018-03-31T20:23:51.354Z,85.60
2018-03-31T20:26:19.516Z,85.90
2018-03-31T20:28:46.892Z,85.90
2018-03-31T20:31:14.279Z,86.50
2018-03-31T20:33:41.671Z,86.80
2018-03-31T20:36:09.052Z,87.20
2018-03-31T20:38:37.215Z,87.10
2018-03-31T20:41:05.391Z,87.10
2018-03-31T20:43:33.519Z,87.50
2018-03-31T20:46:00.926Z,88.40
2018-03-31T20:48:28.311Z,86.70
2018-03-31T20:50:55.715Z,86.70
2018-03-31T20:53:23.083Z,86.30
2018-03-31T20:55:51.248Z,85.90
2018-03-31T20:58:19.404Z,86.70
2018-03-31T21:00:46.771Z,86.70
2018-03-31T21:03:14.936Z,86.90
2018-03-31T21:05:42.308Z,86.90
2018-03-31T21:08:10.474Z,87.00
2018-03-31T21:10:38.611Z,86.70
2018-03-31T21:13:06.009Z,86.70
2018-03-31T21:15:34.181Z,87.40
2018-03-31T21:18:02.328Z,88.00
2018-03-31T21:20:29.715Z,87.90
2018-03-31T21:22:57.120Z,87.90
2018-03-31T21:25:24.512Z,87.70
2018-03-31T21:27:52.656Z,86.30
2018-03-31T21:30:20.041Z,86.40
2018-03-31T21:32:48.176Z,88.70
2018-03-31T21:35:15.583Z,88.60
2018-03-31T21:37:42.956Z,88.70
2018-03-31T21:40:10.356Z,87.90
2018-03-31T21:42:37.768Z,87.70
2018-03-31T21:45:05.139Z,87.10
2018-03-31T21:47:32.513Z,87.60
2018-03-31T21:49:59.904Z,86.90
2018-03-31T21:52:27.312Z,86.70
2018-03-31T21:54:54.688Z,86.30
2018-03-31T21:57:22.100Z,86.80
2018-03-31T21:59:49.472Z,87.30
2018-03-31T22:02:16.844Z,88.60
2018-03-31T22:04:44.247Z,89.40
2018-03-31T22:07:11.655Z,89.80
2018-03-31T22:09:39.052Z,90.20
2018-03-31T22:12:06.443Z,88.90
2018-03-31T22:14:39.464Z,89.10
2018-03-31T22:17:07.619Z,87.60
2018-03-31T22:19:35.007Z,88.40
2018-03-31T22:22:02.449Z,88.10
2018-03-31T22:24:30.607Z,89.70
2018-03-31T22:26:57.997Z,89.70
2018-03-31T22:29:25.400Z,90.00
2018-03-31T22:31:52.782Z,90.00
2018-03-31T22:34:20.923Z,90.40
2018-03-31T22:36:48.334Z,90.40
2018-03-31T22:39:15.707Z,90.20
2018-03-31T22:41:43.082Z,90.40
2018-03-31T22:44:10.495Z,90.50
2018-03-31T22:46:37.890Z,90.90
2018-03-31T22:49:05.264Z,90.70
2018-03-31T22:51:32.672Z,90.90
2018-03-31T22:54:00.050Z,90.90
2018-03-31T22:56:27.435Z,91.20
2018-03-31T22:58:54.833Z,91.20
2018-03-31T23:01:22.212Z,91.30
2018-03-31T23:03:49.611Z,91.30
2018-03-31T23:06:17.752Z,91.50
2018-03-31T23:08:45.128Z,91.50
2018-03-31T23:11:12.519Z,91.70
2018-03-31T23:13:39.911Z,91.70
2018-03-31T23:16:07.284Z,91.50
2018-03-31T23:18:34.701Z,91.60
2018-03-31T23:21:02.080Z,91.70
2018-03-31T23:23:29.455Z,91.50
2018-03-31T23:25:56.909Z,91.80
2018-03-31T23:28:24.247Z,91.60
2018-03-31T23:30:51.651Z,91.30
2018-03-31T23:33:19.028Z,91.30
2018-03-31T23:35:46.412Z,91.60
2018-03-31T23:38:13.823Z,91.60
2018-03-31T23:40:41.228Z,91.80
2018-03-31T23:43:08.599Z,91.80
2018-03-31T23:45:36.771Z,91.70
2018-03-31T23:48:04.931Z,91.60
2018-03-31T23:50:32.323Z,91.60
2018-03-31T23:52:59.689Z,91.50
2018-03-31T23:55:27.087Z,91.50
2018-03-31T23:57:54.459Z,91.30
